Main page
METAR-TAF:

METAR-TAF

Airports :

Trat Airport

Trat, Thailand

latitude: 12-16-28N, longitude: 102-19-08E, elevation: 32 m

Current weather observation

The report was made 10 hours and 9 minutes ago, at 11:00 UTC
Wind 3 kt from the North/Northeast
Temperature 29°C
Humidity 66%
Pressure 1007 hPa
Visibility 10 km or more
Scattered clouds at a height of 2000 ft

METAR: VTBO 011100Z 03003KT 9999 SCT020 29/22 Q1007

Time: 04:09 (21:09 UTC)

Forecast

The report was made 4 hours and 9 minutes ago, at 17:00 UTC
Forecast valid from 01 at 18 UTC to 02 at 18 UTC
Wind kt from the North
Visibility: 8000 m
Few clouds at a height of 2000 ft
Scattered clouds at a height of 8000 ft
Becoming
from 02 at 01 UTC to 02 at 03 UTC
Wind 8 kt from the North/Northeast

TAF: VTBO 011700Z 0118/0218 00000KT 8000 FEW020 SCT080 BECMG 0201/0203 03008KT

Weather observations and forecasts of more than 4000 airports (METAR and TAF reports).

The available stations are represented by yellow and red dots on the map.

Hover mouse over dot to see the name of the station.

Then click to see weather observations and forecasts.

To change the map : click on the green buttons with a black cross to zoom in, on the green button with a dash to zoom out, or on the green arrows for adjacent maps.


METAR-TAF: